sensor_id;sensor_type;location;lat;lon;timestamp;temperature;humidity
52656;SHT85;35474;51.032;6.998;2023-06-22T00:00:35;23.76;57.87
52656;SHT85;35474;51.032;6.998;2023-06-22T00:03:01;23.73;57.73
52656;SHT85;35474;51.032;6.998;2023-06-22T00:05:28;23.77;57.37
52656;SHT85;35474;51.032;6.998;2023-06-22T00:08:02;23.73;57.71
52656;SHT85;35474;51.032;6.998;2023-06-22T00:10:34;23.80;57.71
52656;SHT85;35474;51.032;6.998;2023-06-22T00:13:03;23.86;57.08
52656;SHT85;35474;51.032;6.998;2023-06-22T00:15:30;23.98;56.58
52656;SHT85;35474;51.032;6.998;2023-06-22T00:17:56;23.86;56.90
52656;SHT85;35474;51.032;6.998;2023-06-22T00:20:25;23.84;56.61
52656;SHT85;35474;51.032;6.998;2023-06-22T00:22:57;23.80;56.84
52656;SHT85;35474;51.032;6.998;2023-06-22T00:25:25;23.87;56.28
52656;SHT85;35474;51.032;6.998;2023-06-22T00:27:56;23.82;56.28
52656;SHT85;35474;51.032;6.998;2023-06-22T00:30:22;23.82;56.53
52656;SHT85;35474;51.032;6.998;2023-06-22T00:32:49;23.87;56.23
52656;SHT85;35474;51.032;6.998;2023-06-22T00:35:16;23.77;56.39
52656;SHT85;35474;51.032;6.998;2023-06-22T00:37:45;23.80;56.41
52656;SHT85;35474;51.032;6.998;2023-06-22T00:40:18;23.86;56.01
52656;SHT85;35474;51.032;6.998;2023-06-22T00:42:48;23.83;56.29
52656;SHT85;35474;51.032;6.998;2023-06-22T00:45:14;23.82;56.31
52656;SHT85;35474;51.032;6.998;2023-06-22T00:47:42;23.84;56.01
52656;SHT85;35474;51.032;6.998;2023-06-22T00:50:10;23.82;56.12
52656;SHT85;35474;51.032;6.998;2023-06-22T00:52:44;23.76;56.11
52656;SHT85;35474;51.032;6.998;2023-06-22T00:55:12;23.83;55.61
52656;SHT85;35474;51.032;6.998;2023-06-22T00:57:40;23.94;55.21
52656;SHT85;35474;51.032;6.998;2023-06-22T01:00:07;23.77;55.74
52656;SHT85;35474;51.032;6.998;2023-06-22T01:02:36;23.67;55.91
52656;SHT85;35474;51.032;6.998;2023-06-22T01:05:05;23.72;56.00
52656;SHT85;35474;51.032;6.998;2023-06-22T01:07:35;23.70;55.93
52656;SHT85;35474;51.032;6.998;2023-06-22T01:10:24;23.72;55.92
52656;SHT85;35474;51.032;6.998;2023-06-22T01:13:04;23.73;55.79
52656;SHT85;35474;51.032;6.998;2023-06-22T01:15:39;23.70;56.15
52656;SHT85;35474;51.032;6.998;2023-06-22T01:18:12;23.73;56.12
52656;SHT85;35474;51.032;6.998;2023-06-22T01:20:44;23.86;55.31
52656;SHT85;35474;51.032;6.998;2023-06-22T01:25:57;23.83;55.61
52656;SHT85;35474;51.032;6.998;2023-06-22T01:28:48;23.89;55.26
52656;SHT85;35474;51.032;6.998;2023-06-22T01:31:23;23.84;55.91
52656;SHT85;35474;51.032;6.998;2023-06-22T01:34:09;23.73;55.96
52656;SHT85;35474;51.032;6.998;2023-06-22T01:36:39;23.76;56.24
52656;SHT85;35474;51.032;6.998;2023-06-22T01:39:06;23.84;55.77
52656;SHT85;35474;51.032;6.998;2023-06-22T01:41:35;23.77;56.02
52656;SHT85;35474;51.032;6.998;2023-06-22T01:44:06;23.66;56.07
52656;SHT85;35474;51.032;6.998;2023-06-22T01:46:35;23.73;55.87
52656;SHT85;35474;51.032;6.998;2023-06-22T01:49:02;23.65;56.11
52656;SHT85;35474;51.032;6.998;2023-06-22T01:51:30;23.73;55.18
52656;SHT85;35474;51.032;6.998;2023-06-22T01:54:01;23.61;55.89
52656;SHT85;35474;51.032;6.998;2023-06-22T01:56:28;23.70;55.71
52656;SHT85;35474;51.032;6.998;2023-06-22T01:58:57;23.66;55.37
52656;SHT85;35474;51.032;6.998;2023-06-22T02:01:42;23.61;55.52
52656;SHT85;35474;51.032;6.998;2023-06-22T02:04:13;23.62;55.25
52656;SHT85;35474;51.032;6.998;2023-06-22T02:06:47;23.47;56.18
52656;SHT85;35474;51.032;6.998;2023-06-22T02:09:17;23.38;56.66
52656;SHT85;35474;51.032;6.998;2023-06-22T02:11:47;23.39;56.85
52656;SHT85;35474;51.032;6.998;2023-06-22T02:14:21;23.35;57.03
52656;SHT85;35474;51.032;6.998;2023-06-22T02:16:48;23.32;57.09
52656;SHT85;35474;51.032;6.998;2023-06-22T02:19:17;23.25;57.38
52656;SHT85;35474;51.032;6.998;2023-06-22T02:21:49;23.29;57.43
52656;SHT85;35474;51.032;6.998;2023-06-22T02:24:16;23.21;57.98
52656;SHT85;35474;51.032;6.998;2023-06-22T02:26:43;23.14;58.18
52656;SHT85;35474;51.032;6.998;2023-06-22T02:29:11;23.18;58.10
52656;SHT85;35474;51.032;6.998;2023-06-22T02:31:38;23.10;58.16
52656;SHT85;35474;51.032;6.998;2023-06-22T02:34:06;22.99;58.52
52656;SHT85;35474;51.032;6.998;2023-06-22T02:36:33;22.95;58.44
52656;SHT85;35474;51.032;6.998;2023-06-22T02:38:59;22.88;58.94
52656;SHT85;35474;51.032;6.998;2023-06-22T02:41:31;22.94;59.04
52656;SHT85;35474;51.032;6.998;2023-06-22T02:44:00;22.97;59.01
52656;SHT85;35474;51.032;6.998;2023-06-22T02:46:30;22.98;59.08
52656;SHT85;35474;51.032;6.998;2023-06-22T02:48:57;22.94;59.24
52656;SHT85;35474;51.032;6.998;2023-06-22T02:51:24;22.94;59.51
52656;SHT85;35474;51.032;6.998;2023-06-22T02:53:51;22.91;59.53
52656;SHT85;35474;51.032;6.998;2023-06-22T02:56:23;22.85;59.60
52656;SHT85;35474;51.032;6.998;2023-06-22T02:58:51;22.87;59.54
52656;SHT85;35474;51.032;6.998;2023-06-22T03:01:18;22.85;59.56
52656;SHT85;35474;51.032;6.998;2023-06-22T03:03:50;22.87;59.52
52656;SHT85;35474;51.032;6.998;2023-06-22T03:06:17;22.83;59.60
52656;SHT85;35474;51.032;6.998;2023-06-22T03:08:50;22.80;59.83
52656;SHT85;35474;51.032;6.998;2023-06-22T03:11:17;22.76;59.88
52656;SHT85;35474;51.032;6.998;2023-06-22T03:13:43;22.87;59.61
52656;SHT85;35474;51.032;6.998;2023-06-22T03:16:12;22.85;59.78
52656;SHT85;35474;51.032;6.998;2023-06-22T03:18:39;22.88;59.57
52656;SHT85;35474;51.032;6.998;2023-06-22T03:21:06;22.88;59.27
52656;SHT85;35474;51.032;6.998;2023-06-22T03:23:33;22.97;58.98
52656;SHT85;35474;51.032;6.998;2023-06-22T03:26:01;22.95;58.91
52656;SHT85;35474;51.032;6.998;2023-06-22T03:28:29;22.99;58.19
52656;SHT85;35474;51.032;6.998;2023-06-22T03:30:59;22.97;58.06
52656;SHT85;35474;51.032;6.998;2023-06-22T03:33:26;22.87;58.58
52656;SHT85;35474;51.032;6.998;2023-06-22T03:35:53;22.91;58.47
52656;SHT85;35474;51.032;6.998;2023-06-22T03:38:20;22.80;58.27
52656;SHT85;35474;51.032;6.998;2023-06-22T03:40:52;22.90;58.01
52656;SHT85;35474;51.032;6.998;2023-06-22T03:43:19;23.04;57.74
52656;SHT85;35474;51.032;6.998;2023-06-22T03:45:46;22.94;57.83
52656;SHT85;35474;51.032;6.998;2023-06-22T03:48:16;22.91;58.10
52656;SHT85;35474;51.032;6.998;2023-06-22T03:50:44;22.85;58.35
52656;SHT85;35474;51.032;6.998;2023-06-22T03:53:10;23.01;58.07
52656;SHT85;35474;51.032;6.998;2023-06-22T03:55:40;23.02;58.07
52656;SHT85;35474;51.032;6.998;2023-06-22T03:58:14;23.10;57.93
52656;SHT85;35474;51.032;6.998;2023-06-22T04:00:41;23.05;58.05
52656;SHT85;35474;51.032;6.998;2023-06-22T04:03:08;23.01;58.35
52656;SHT85;35474;51.032;6.998;2023-06-22T04:05:39;23.01;58.49
52656;SHT85;35474;51.032;6.998;2023-06-22T04:08:06;23.05;58.67
52656;SHT85;35474;51.032;6.998;2023-06-22T04:10:35;22.94;58.85
52656;SHT85;35474;51.032;6.998;2023-06-22T04:13:04;22.95;58.97
52656;SHT85;35474;51.032;6.998;2023-06-22T04:15:31;22.91;59.35
52656;SHT85;35474;51.032;6.998;2023-06-22T04:17:58;22.90;59.40
52656;SHT85;35474;51.032;6.998;2023-06-22T04:20:25;22.97;59.43
52656;SHT85;35474;51.032;6.998;2023-06-22T04:22:55;22.99;59.84
52656;SHT85;35474;51.032;6.998;2023-06-22T04:25:22;23.04;59.55
52656;SHT85;35474;51.032;6.998;2023-06-22T04:27:48;23.10;59.43
52656;SHT85;35474;51.032;6.998;2023-06-22T04:30:15;23.26;59.26
52656;SHT85;35474;51.032;6.998;2023-06-22T04:32:44;23.22;59.55
52656;SHT85;35474;51.032;6.998;2023-06-22T04:35:11;23.19;59.82
52656;SHT85;35474;51.032;6.998;2023-06-22T04:37:38;23.15;59.98
52656;SHT85;35474;51.032;6.998;2023-06-22T04:40:06;23.26;59.73
52656;SHT85;35474;51.032;6.998;2023-06-22T04:42:34;23.25;59.82
52656;SHT85;35474;51.032;6.998;2023-06-22T04:45:02;23.46;59.47
52656;SHT85;35474;51.032;6.998;2023-06-22T04:47:29;23.38;59.49
52656;SHT85;35474;51.032;6.998;2023-06-22T04:49:58;23.43;59.29
52656;SHT85;35474;51.032;6.998;2023-06-22T04:52:24;23.43;59.46
52656;SHT85;35474;51.032;6.998;2023-06-22T04:54:51;23.46;59.63
52656;SHT85;35474;51.032;6.998;2023-06-22T04:57:21;23.46;59.57
52656;SHT85;35474;51.032;6.998;2023-06-22T04:59:59;23.45;59.13
52656;SHT85;35474;51.032;6.998;2023-06-22T05:02:40;23.45;59.27
52656;SHT85;35474;51.032;6.998;2023-06-22T05:05:07;23.24;60.38
52656;SHT85;35474;51.032;6.998;2023-06-22T05:07:35;23.12;60.62
52656;SHT85;35474;51.032;6.998;2023-06-22T05:10:02;23.21;60.45
52656;SHT85;35474;51.032;6.998;2023-06-22T05:12:32;23.29;60.57
52656;SHT85;35474;51.032;6.998;2023-06-22T05:14:59;23.46;60.11
52656;SHT85;35474;51.032;6.998;2023-06-22T05:17:27;23.36;60.61
52656;SHT85;35474;51.032;6.998;2023-06-22T05:19:54;23.43;60.75
52656;SHT85;35474;51.032;6.998;2023-06-22T05:22:21;23.58;60.33
52656;SHT85;35474;51.032;6.998;2023-06-22T05:24:48;23.39;61.57
52656;SHT85;35474;51.032;6.998;2023-06-22T05:27:22;23.39;61.65
52656;SHT85;35474;51.032;6.998;2023-06-22T05:29:49;23.49;61.52
52656;SHT85;35474;51.032;6.998;2023-06-22T05:32:15;23.32;61.97
52656;SHT85;35474;51.032;6.998;2023-06-22T05:34:45;23.42;61.08
52656;SHT85;35474;51.032;6.998;2023-06-22T05:37:12;23.45;61.07
52656;SHT85;35474;51.032;6.998;2023-06-22T05:39:39;23.41;61.07
52656;SHT85;35474;51.032;6.998;2023-06-22T05:42:05;23.46;61.04
52656;SHT85;35474;51.032;6.998;2023-06-22T05:45:02;23.59;61.97
52656;SHT85;35474;51.032;6.998;2023-06-22T05:47:32;23.46;61.74
52656;SHT85;35474;51.032;6.998;2023-06-22T05:50:02;23.72;61.07
52656;SHT85;35474;51.032;6.998;2023-06-22T05:52:38;23.82;61.37
52656;SHT85;35474;51.032;6.998;2023-06-22T05:55:08;23.90;62.02
52656;SHT85;35474;51.032;6.998;2023-06-22T05:57:37;23.93;62.62
52656;SHT85;35474;51.032;6.998;2023-06-22T06:00:07;23.86;62.87
52656;SHT85;35474;51.032;6.998;2023-06-22T06:02:37;24.20;61.93
52656;SHT85;35474;51.032;6.998;2023-06-22T06:05:12;24.21;62.33
52656;SHT85;35474;51.032;6.998;2023-06-22T06:07:47;24.25;62.37
52656;SHT85;35474;51.032;6.998;2023-06-22T06:10:19;24.34;62.18
52656;SHT85;35474;51.032;6.998;2023-06-22T06:12:46;24.72;61.54
52656;SHT85;35474;51.032;6.998;2023-06-22T06:15:17;24.89;61.28
52656;SHT85;35474;51.032;6.998;2023-06-22T06:17:54;24.79;61.62
52656;SHT85;35474;51.032;6.998;2023-06-22T06:20:24;24.89;61.58
52656;SHT85;35474;51.032;6.998;2023-06-22T06:22:56;24.81;61.77
52656;SHT85;35474;51.032;6.998;2023-06-22T06:25:27;24.82;61.95
52656;SHT85;35474;51.032;6.998;2023-06-22T06:27:54;24.92;61.68
52656;SHT85;35474;51.032;6.998;2023-06-22T06:32:37;25.12;61.73
52656;SHT85;35474;51.032;6.998;2023-06-22T06:35:06;24.93;62.62
52656;SHT85;35474;51.032;6.998;2023-06-22T06:37:43;24.90;62.44
52656;SHT85;35474;51.032;6.998;2023-06-22T06:40:17;25.08;62.35
52656;SHT85;35474;51.032;6.998;2023-06-22T06:42:46;25.09;62.07
52656;SHT85;35474;51.032;6.998;2023-06-22T06:45:22;25.00;62.75
52656;SHT85;35474;51.032;6.998;2023-06-22T06:47:50;25.16;62.52
52656;SHT85;35474;51.032;6.998;2023-06-22T06:50:20;25.23;62.52
52656;SHT85;35474;51.032;6.998;2023-06-22T06:52:47;25.40;62.17
52656;SHT85;35474;51.032;6.998;2023-06-22T06:55:17;25.53;62.15
52656;SHT85;35474;51.032;6.998;2023-06-22T06:57:45;25.61;61.91
52656;SHT85;35474;51.032;6.998;2023-06-22T07:00:17;25.58;62.13
52656;SHT85;35474;51.032;6.998;2023-06-22T07:02:44;25.91;61.57
52656;SHT85;35474;51.032;6.998;2023-06-22T07:05:14;25.82;61.64
52656;SHT85;35474;51.032;6.998;2023-06-22T07:07:46;25.82;61.92
52656;SHT85;35474;51.032;6.998;2023-06-22T07:10:19;26.01;61.38
52656;SHT85;35474;51.032;6.998;2023-06-22T07:12:54;26.24;60.87
52656;SHT85;35474;51.032;6.998;2023-06-22T07:15:24;26.26;60.33
52656;SHT85;35474;51.032;6.998;2023-06-22T07:17:54;26.32;60.45
52656;SHT85;35474;51.032;6.998;2023-06-22T07:20:21;26.40;60.04
52656;SHT85;35474;51.032;6.998;2023-06-22T07:22:57;26.37;60.15
52656;SHT85;35474;51.032;6.998;2023-06-22T07:25:24;26.62;59.49
52656;SHT85;35474;51.032;6.998;2023-06-22T07:28:06;26.22;60.21
52656;SHT85;35474;51.032;6.998;2023-06-22T07:30:40;26.16;60.65
52656;SHT85;35474;51.032;6.998;2023-06-22T07:33:12;26.49;60.10
52656;SHT85;35474;51.032;6.998;2023-06-22T07:35:52;26.66;59.06
52656;SHT85;35474;51.032;6.998;2023-06-22T07:38:18;26.80;58.88
52656;SHT85;35474;51.032;6.998;2023-06-22T07:40:48;26.66;59.11
52656;SHT85;35474;51.032;6.998;2023-06-22T07:43:29;26.60;59.14
52656;SHT85;35474;51.032;6.998;2023-06-22T07:45:56;26.59;59.33
52656;SHT85;35474;51.032;6.998;2023-06-22T07:48:24;26.46;59.48
52656;SHT85;35474;51.032;6.998;2023-06-22T07:50:50;26.72;58.56
52656;SHT85;35474;51.032;6.998;2023-06-22T07:53:17;26.80;58.44
52656;SHT85;35474;51.032;6.998;2023-06-22T07:55:43;26.79;58.38
52656;SHT85;35474;51.032;6.998;2023-06-22T07:58:10;26.65;58.64
52656;SHT85;35474;51.032;6.998;2023-06-22T08:00:36;26.57;58.91
52656;SHT85;35474;51.032;6.998;2023-06-22T08:03:03;26.57;58.99
52656;SHT85;35474;51.032;6.998;2023-06-22T08:05:31;26.57;59.02
52656;SHT85;35474;51.032;6.998;2023-06-22T08:07:58;26.69;58.91
52656;SHT85;35474;51.032;6.998;2023-06-22T08:10:24;26.93;58.63
52656;SHT85;35474;51.032;6.998;2023-06-22T08:12:52;27.13;58.19
52656;SHT85;35474;51.032;6.998;2023-06-22T08:15:19;27.13;58.04
52656;SHT85;35474;51.032;6.998;2023-06-22T08:17:46;27.23;57.54
52656;SHT85;35474;51.032;6.998;2023-06-22T08:20:15;27.18;55.90
52656;SHT85;35474;51.032;6.998;2023-06-22T08:22:43;27.49;56.12
52656;SHT85;35474;51.032;6.998;2023-06-22T08:25:10;28.31;53.89
52656;SHT85;35474;51.032;6.998;2023-06-22T08:27:37;30.14;48.92
52656;SHT85;35474;51.032;6.998;2023-06-22T08:30:04;30.79;47.91
52656;SHT85;35474;51.032;6.998;2023-06-22T08:32:31;30.75;47.37
52656;SHT85;35474;51.032;6.998;2023-06-22T08:34:59;31.33;46.11
52656;SHT85;35474;51.032;6.998;2023-06-22T08:37:26;30.86;46.11
52656;SHT85;35474;51.032;6.998;2023-06-22T08:40:03;31.27;46.32
52656;SHT85;35474;51.032;6.998;2023-06-22T08:42:35;30.73;47.81
52656;SHT85;35474;51.032;6.998;2023-06-22T08:45:06;30.61;47.97
52656;SHT85;35474;51.032;6.998;2023-06-22T08:47:33;32.59;44.34
52656;SHT85;35474;51.032;6.998;2023-06-22T08:50:00;32.01;45.68
52656;SHT85;35474;51.032;6.998;2023-06-22T08:52:29;32.49;45.52
52656;SHT85;35474;51.032;6.998;2023-06-22T08:54:56;33.17;44.30
52656;SHT85;35474;51.032;6.998;2023-06-22T08:57:24;33.15;43.93
52656;SHT85;35474;51.032;6.998;2023-06-22T08:59:50;33.04;44.05
52656;SHT85;35474;51.032;6.998;2023-06-22T09:02:19;31.77;47.46
52656;SHT85;35474;51.032;6.998;2023-06-22T09:04:46;31.64;47.89
52656;SHT85;35474;51.032;6.998;2023-06-22T09:07:13;31.23;48.58
52656;SHT85;35474;51.032;6.998;2023-06-22T09:09:39;31.12;49.25
52656;SHT85;35474;51.032;6.998;2023-06-22T09:12:06;30.94;49.39
52656;SHT85;35474;51.032;6.998;2023-06-22T09:14:34;30.41;50.82
52656;SHT85;35474;51.032;6.998;2023-06-22T09:17:00;30.32;51.16
52656;SHT85;35474;51.032;6.998;2023-06-22T09:19:29;30.55;50.53
52656;SHT85;35474;51.032;6.998;2023-06-22T09:21:56;30.48;50.46
52656;SHT85;35474;51.032;6.998;2023-06-22T09:24:23;30.13;50.41
52656;SHT85;35474;51.032;6.998;2023-06-22T09:26:49;30.20;50.21
52656;SHT85;35474;51.032;6.998;2023-06-22T09:29:16;31.45;47.42
52656;SHT85;35474;51.032;6.998;2023-06-22T09:31:43;32.56;45.55
52656;SHT85;35474;51.032;6.998;2023-06-22T09:34:10;32.05;45.53
52656;SHT85;35474;51.032;6.998;2023-06-22T09:36:37;31.84;45.93
52656;SHT85;35474;51.032;6.998;2023-06-22T09:39:06;31.19;47.43
52656;SHT85;35474;51.032;6.998;2023-06-22T09:41:33;30.73;48.72
52656;SHT85;35474;51.032;6.998;2023-06-22T09:43:59;30.92;48.33
52656;SHT85;35474;51.032;6.998;2023-06-22T09:46:26;31.19;47.81
52656;SHT85;35474;51.032;6.998;2023-06-22T09:48:54;31.19;47.94
52656;SHT85;35474;51.032;6.998;2023-06-22T09:51:20;31.06;47.46
52656;SHT85;35474;51.032;6.998;2023-06-22T09:53:48;31.29;47.01
52656;SHT85;35474;51.032;6.998;2023-06-22T09:56:14;31.70;46.06
52656;SHT85;35474;51.032;6.998;2023-06-22T09:58:42;31.62;46.40
52656;SHT85;35474;51.032;6.998;2023-06-22T10:01:09;30.90;47.84
52656;SHT85;35474;51.032;6.998;2023-06-22T10:03:40;30.96;48.18
52656;SHT85;35474;51.032;6.998;2023-06-22T10:06:10;30.07;49.91
52656;SHT85;35474;51.032;6.998;2023-06-22T10:08:37;29.20;51.74
52656;SHT85;35474;51.032;6.998;2023-06-22T10:11:05;29.26;51.98
52656;SHT85;35474;51.032;6.998;2023-06-22T10:13:35;29.22;51.98
52656;SHT85;35474;51.032;6.998;2023-06-22T10:16:01;29.05;52.56
52656;SHT85;35474;51.032;6.998;2023-06-22T10:18:28;28.78;53.22
52656;SHT85;35474;51.032;6.998;2023-06-22T10:20:54;28.63;53.34
52656;SHT85;35474;51.032;6.998;2023-06-22T10:23:21;28.54;53.77
52656;SHT85;35474;51.032;6.998;2023-06-22T10:25:48;27.66;56.54
52656;SHT85;35474;51.032;6.998;2023-06-22T10:28:15;26.55;62.08
52656;SHT85;35474;51.032;6.998;2023-06-22T10:30:42;25.55;65.91
52656;SHT85;35474;51.032;6.998;2023-06-22T10:33:09;25.36;67.21
52656;SHT85;35474;51.032;6.998;2023-06-22T10:35:38;25.12;68.83
52656;SHT85;35474;51.032;6.998;2023-06-22T10:38:05;24.75;71.35
52656;SHT85;35474;51.032;6.998;2023-06-22T10:40:32;25.00;69.60
52656;SHT85;35474;51.032;6.998;2023-06-22T10:42:59;24.72;72.13
52656;SHT85;35474;51.032;6.998;2023-06-22T10:45:26;24.68;75.69
52656;SHT85;35474;51.032;6.998;2023-06-22T10:47:54;24.85;70.96
52656;SHT85;35474;51.032;6.998;2023-06-22T10:50:20;24.31;75.95
52656;SHT85;35474;51.032;6.998;2023-06-22T10:52:50;23.94;79.61
52656;SHT85;35474;51.032;6.998;2023-06-22T10:55:16;23.04;85.48
52656;SHT85;35474;51.032;6.998;2023-06-22T10:57:43;22.37;86.52
52656;SHT85;35474;51.032;6.998;2023-06-22T11:00:13;22.20;89.62
52656;SHT85;35474;51.032;6.998;2023-06-22T11:02:42;22.40;91.51
52656;SHT85;35474;51.032;6.998;2023-06-22T11:05:09;22.23;91.77
52656;SHT85;35474;51.032;6.998;2023-06-22T11:07:36;22.25;92.77
52656;SHT85;35474;51.032;6.998;2023-06-22T11:10:09;22.03;92.50
52656;SHT85;35474;51.032;6.998;2023-06-22T11:12:37;22.22;93.58
52656;SHT85;35474;51.032;6.998;2023-06-22T11:15:04;22.43;94.23
52656;SHT85;35474;51.032;6.998;2023-06-22T11:17:31;22.09;93.22
52656;SHT85;35474;51.032;6.998;2023-06-22T11:19:58;22.10;93.34
52656;SHT85;35474;51.032;6.998;2023-06-22T11:22:26;22.32;93.99
52656;SHT85;35474;51.032;6.998;2023-06-22T11:24:53;22.46;93.81
52656;SHT85;35474;51.032;6.998;2023-06-22T11:27:19;22.59;94.28
52656;SHT85;35474;51.032;6.998;2023-06-22T11:29:46;22.61;94.35
52656;SHT85;35474;51.032;6.998;2023-06-22T11:32:12;22.77;94.49
52656;SHT85;35474;51.032;6.998;2023-06-22T11:34:40;22.87;94.57
52656;SHT85;35474;51.032;6.998;2023-06-22T11:37:07;22.98;94.49
52656;SHT85;35474;51.032;6.998;2023-06-22T11:39:33;23.15;94.72
52656;SHT85;35474;51.032;6.998;2023-06-22T11:42:13;23.35;94.56
52656;SHT85;35474;51.032;6.998;2023-06-22T11:44:39;23.31;94.13
52656;SHT85;35474;51.032;6.998;2023-06-22T11:47:06;23.47;94.08
52656;SHT85;35474;51.032;6.998;2023-06-22T11:49:33;23.36;93.89
52656;SHT85;35474;51.032;6.998;2023-06-22T11:51:59;23.14;93.35
52656;SHT85;35474;51.032;6.998;2023-06-22T11:54:26;23.15;93.46
52656;SHT85;35474;51.032;6.998;2023-06-22T11:56:53;23.24;93.54
52656;SHT85;35474;51.032;6.998;2023-06-22T11:59:19;23.22;92.60
52656;SHT85;35474;51.032;6.998;2023-06-22T12:01:48;23.59;92.40
52656;SHT85;35474;51.032;6.998;2023-06-22T12:04:17;23.74;90.68
52656;SHT85;35474;51.032;6.998;2023-06-22T12:06:44;23.72;89.81
52656;SHT85;35474;51.032;6.998;2023-06-22T12:09:10;23.62;89.31
52656;SHT85;35474;51.032;6.998;2023-06-22T12:11:39;23.70;89.83
52656;SHT85;35474;51.032;6.998;2023-06-22T12:14:06;24.55;88.31
52656;SHT85;35474;51.032;6.998;2023-06-22T12:16:32;25.26;85.16
52656;SHT85;35474;51.032;6.998;2023-06-22T12:18:59;26.45;81.60
52656;SHT85;35474;51.032;6.998;2023-06-22T12:21:25;26.36;80.61
52656;SHT85;35474;51.032;6.998;2023-06-22T12:23:52;26.26;79.63
52656;SHT85;35474;51.032;6.998;2023-06-22T12:26:19;25.74;78.98
52656;SHT85;35474;51.032;6.998;2023-06-22T12:28:45;25.53;81.27
52656;SHT85;35474;51.032;6.998;2023-06-22T12:31:14;25.70;81.08
52656;SHT85;35474;51.032;6.998;2023-06-22T12:33:40;25.74;81.95
52656;SHT85;35474;51.032;6.998;2023-06-22T12:36:07;25.34;82.00
52656;SHT85;35474;51.032;6.998;2023-06-22T12:38:35;25.80;80.29
52656;SHT85;35474;51.032;6.998;2023-06-22T12:41:01;26.28;79.29
52656;SHT85;35474;51.032;6.998;2023-06-22T12:43:28;27.15;76.17
52656;SHT85;35474;51.032;6.998;2023-06-22T12:45:55;28.09;74.36
52656;SHT85;35474;51.032;6.998;2023-06-22T12:48:22;29.53;68.92
52656;SHT85;35474;51.032;6.998;2023-06-22T12:50:48;29.72;68.09
52656;SHT85;35474;51.032;6.998;2023-06-22T12:53:15;29.59;67.65
52656;SHT85;35474;51.032;6.998;2023-06-22T12:55:43;30.10;65.43
52656;SHT85;35474;51.032;6.998;2023-06-22T12:58:09;30.10;63.67
52656;SHT85;35474;51.032;6.998;2023-06-22T13:00:37;30.49;65.08
52656;SHT85;35474;51.032;6.998;2023-06-22T13:03:05;30.80;63.06
52656;SHT85;35474;51.032;6.998;2023-06-22T13:05:32;30.35;62.70
52656;SHT85;35474;51.032;6.998;2023-06-22T13:08:01;29.77;64.78
52656;SHT85;35474;51.032;6.998;2023-06-22T13:10:29;30.15;61.81
52656;SHT85;35474;51.032;6.998;2023-06-22T13:12:56;31.00;61.07
52656;SHT85;35474;51.032;6.998;2023-06-22T13:15:30;30.83;59.41
52656;SHT85;35474;51.032;6.998;2023-06-22T13:17:57;31.29;59.30
52656;SHT85;35474;51.032;6.998;2023-06-22T13:20:23;30.62;60.10
52656;SHT85;35474;51.032;6.998;2023-06-22T13:22:50;31.35;58.86
52656;SHT85;35474;51.032;6.998;2023-06-22T13:25:16;32.32;55.72
52656;SHT85;35474;51.032;6.998;2023-06-22T13:27:45;31.55;57.63
52656;SHT85;35474;51.032;6.998;2023-06-22T13:30:12;30.86;58.39
52656;SHT85;35474;51.032;6.998;2023-06-22T13:32:40;29.80;61.12
52656;SHT85;35474;51.032;6.998;2023-06-22T13:35:09;30.49;59.54
52656;SHT85;35474;51.032;6.998;2023-06-22T13:37:37;31.23;57.07
52656;SHT85;35474;51.032;6.998;2023-06-22T13:40:07;31.02;56.25
52656;SHT85;35474;51.032;6.998;2023-06-22T13:42:34;30.93;56.09
52656;SHT85;35474;51.032;6.998;2023-06-22T13:45:01;31.41;54.45
52656;SHT85;35474;51.032;6.998;2023-06-22T13:47:28;31.44;55.16
52656;SHT85;35474;51.032;6.998;2023-06-22T13:49:56;31.13;55.36
52656;SHT85;35474;51.032;6.998;2023-06-22T13:52:24;31.31;55.60
52656;SHT85;35474;51.032;6.998;2023-06-22T13:54:51;30.58;57.79
52656;SHT85;35474;51.032;6.998;2023-06-22T13:57:17;30.17;58.13
52656;SHT85;35474;51.032;6.998;2023-06-22T13:59:44;30.18;59.54
52656;SHT85;35474;51.032;6.998;2023-06-22T14:02:11;29.91;60.19
52656;SHT85;35474;51.032;6.998;2023-06-22T14:04:38;30.31;58.48
52656;SHT85;35474;51.032;6.998;2023-06-22T14:07:06;29.88;59.46
52656;SHT85;35474;51.032;6.998;2023-06-22T14:09:33;31.00;57.32
52656;SHT85;35474;51.032;6.998;2023-06-22T14:12:03;31.47;55.61
52656;SHT85;35474;51.032;6.998;2023-06-22T14:14:31;32.08;53.96
52656;SHT85;35474;51.032;6.998;2023-06-22T14:16:59;32.19;53.23
52656;SHT85;35474;51.032;6.998;2023-06-22T14:19:26;31.94;53.59
52656;SHT85;35474;51.032;6.998;2023-06-22T14:21:53;31.71;54.15
52656;SHT85;35474;51.032;6.998;2023-06-22T14:28:25;29.32;59.05
52656;SHT85;35474;51.032;6.998;2023-06-22T14:31:22;29.07;58.95
52656;SHT85;35474;51.032;6.998;2023-06-22T14:34:00;28.75;59.63
52656;SHT85;35474;51.032;6.998;2023-06-22T14:37:32;28.60;59.81
52656;SHT85;35474;51.032;6.998;2023-06-22T14:40:09;28.26;60.68
52656;SHT85;35474;51.032;6.998;2023-06-22T14:42:37;28.33;61.03
52656;SHT85;35474;51.032;6.998;2023-06-22T14:45:26;27.85;61.94
52656;SHT85;35474;51.032;6.998;2023-06-22T14:47:53;27.57;63.38
52656;SHT85;35474;51.032;6.998;2023-06-22T14:50:20;27.55;63.68
52656;SHT85;35474;51.032;6.998;2023-06-22T14:52:58;27.39;64.10
52656;SHT85;35474;51.032;6.998;2023-06-22T14:55:33;27.27;65.04
52656;SHT85;35474;51.032;6.998;2023-06-22T14:58:06;27.00;66.43
52656;SHT85;35474;51.032;6.998;2023-06-22T15:00:40;26.86;67.30
52656;SHT85;35474;51.032;6.998;2023-06-22T15:04:00;26.66;69.74
52656;SHT85;35474;51.032;6.998;2023-06-22T15:06:54;25.87;72.68
52656;SHT85;35474;51.032;6.998;2023-06-22T15:09:46;24.92;78.04
52656;SHT85;35474;51.032;6.998;2023-06-22T15:12:16;24.38;82.24
52656;SHT85;35474;51.032;6.998;2023-06-22T15:14:43;23.92;84.75
52656;SHT85;35474;51.032;6.998;2023-06-22T15:17:12;23.46;86.71
52656;SHT85;35474;51.032;6.998;2023-06-22T15:19:47;23.24;88.16
52656;SHT85;35474;51.032;6.998;2023-06-22T15:22:14;23.16;89.03
52656;SHT85;35474;51.032;6.998;2023-06-22T15:24:44;23.12;90.00
52656;SHT85;35474;51.032;6.998;2023-06-22T15:27:11;23.12;89.99
52656;SHT85;35474;51.032;6.998;2023-06-22T15:29:39;22.94;90.03
52656;SHT85;35474;51.032;6.998;2023-06-22T15:32:06;22.83;90.29
52656;SHT85;35474;51.032;6.998;2023-06-22T15:34:33;22.78;90.42
52656;SHT85;35474;51.032;6.998;2023-06-22T15:37:00;22.66;90.56
52656;SHT85;35474;51.032;6.998;2023-06-22T15:39:26;22.67;90.56
52656;SHT85;35474;51.032;6.998;2023-06-22T15:41:53;22.56;90.53
52656;SHT85;35474;51.032;6.998;2023-06-22T15:44:20;22.44;90.99
52656;SHT85;35474;51.032;6.998;2023-06-22T15:46:48;22.41;91.18
52656;SHT85;35474;51.032;6.998;2023-06-22T15:49:15;22.37;91.45
52656;SHT85;35474;51.032;6.998;2023-06-22T15:51:43;22.41;91.64